Time;durP1;ratioP1;P1;durP2;ratioP2;P2;SDS_P1;SDS_P2;PMS_P1;PMS_P2;Temp;Humidity;BMP_temperature;BMP_pressure;BME280_temperature;BME280_humidity;BME280_pressure;Samples;Min_cycle;Max_cycle;Signal;HPM_P1;HPM_P2
2022/06/24 00:02:17;;;;;;;0.40;0.40;;;18.70;99.90;;;;;;5051256;28;20198;-73
2022/06/24 00:04:50;;;;;;;0.30;0.30;;;18.70;99.90;;;;;;5051364;28;20179;-73
2022/06/24 00:07:16;;;;;;;0.30;0.30;;;18.70;99.90;;;;;;5054790;28;20305;-73
2022/06/24 00:09:43;;;;;;;0.30;0.30;;;18.60;99.90;;;;;;5054550;28;20179;-73
2022/06/24 00:12:11;;;;;;;0.40;0.40;;;18.50;99.90;;;;;;5054718;28;20221;-73
2022/06/24 00:14:38;;;;;;;0.30;0.30;;;18.50;99.90;;;;;;5055001;28;20269;-73
2022/06/24 00:17:06;;;;;;;0.30;0.30;;;18.40;99.90;;;;;;5055019;28;20167;-73
2022/06/24 00:19:35;;;;;;;0.30;0.30;;;18.40;99.90;;;;;;5054385;28;20183;-73
2022/06/24 00:22:03;;;;;;;0.40;0.40;;;18.40;99.90;;;;;;5054591;28;20202;-73
2022/06/24 00:24:30;;;;;;;0.40;0.40;;;18.40;99.90;;;;;;5054563;28;20167;-73
2022/06/24 00:26:56;;;;;;;0.30;0.30;;;18.50;99.90;;;;;;5054595;28;20245;-75
2022/06/24 00:29:21;;;;;;;0.30;0.30;;;18.50;99.90;;;;;;5054102;28;20632;-73
2022/06/24 00:32:07;;;;;;;0.37;0.37;;;18.50;99.90;;;;;;5054531;28;20564;-73
2022/06/24 00:34:34;;;;;;;0.37;0.37;;;18.60;99.90;;;;;;5054393;28;20258;-73
2022/06/24 00:37:27;;;;;;;0.40;0.40;;;18.50;99.90;;;;;;5054068;28;20202;-73
2022/06/24 00:39:59;;;;;;;0.30;0.30;;;18.50;99.90;;;;;;5054294;28;20178;-73
2022/06/24 00:42:26;;;;;;;0.30;0.30;;;18.50;99.90;;;;;;5054061;28;20624;-73
2022/06/24 00:45:09;;;;;;;0.30;0.30;;;18.40;99.90;;;;;;5054241;28;20172;-73
2022/06/24 00:47:37;;;;;;;0.30;0.30;;;18.30;99.90;;;;;;5054438;28;20191;-73
2022/06/24 00:50:14;;;;;;;0.30;0.30;;;18.30;99.90;;;;;;5053819;28;20174;-74
2022/06/24 00:52:39;;;;;;;0.30;0.30;;;18.40;99.90;;;;;;5054145;28;20281;-73
2022/06/24 00:55:05;;;;;;;0.30;0.30;;;18.40;99.90;;;;;;5054179;28;20806;-73
2022/06/24 00:57:35;;;;;;;0.30;0.30;;;18.30;99.90;;;;;;5053549;28;20955;-73
2022/06/24 01:00:03;;;;;;;0.30;0.30;;;18.30;99.90;;;;;;5052741;28;20203;-74
2022/06/24 01:02:30;;;;;;;0.40;0.40;;;18.30;99.90;;;;;;5054715;28;20203;-73
2022/06/24 01:05:05;;;;;;;0.37;0.37;;;18.30;99.90;;;;;;5053816;28;20371;-73
2022/06/24 01:07:31;;;;;;;0.30;0.30;;;18.20;99.90;;;;;;5053652;28;20647;-74
2022/06/24 01:09:57;;;;;;;0.30;0.30;;;18.30;99.90;;;;;;5053190;28;20305;-73
2022/06/24 01:12:23;;;;;;;0.37;0.37;;;18.30;99.90;;;;;;5053414;28;20195;-73
2022/06/24 01:14:48;;;;;;;0.30;0.30;;;18.20;99.90;;;;;;5053617;28;20206;-73
2022/06/24 01:17:14;;;;;;;0.30;0.30;;;18.30;99.90;;;;;;5053640;28;20167;-74
2022/06/24 01:19:40;;;;;;;0.43;0.43;;;18.30;99.90;;;;;;5053008;28;20585;-73
2022/06/24 01:22:05;;;;;;;0.30;0.30;;;18.30;99.90;;;;;;5053836;28;20644;-73
2022/06/24 01:24:31;;;;;;;0.30;0.30;;;18.20;99.90;;;;;;5053211;28;20589;-73
2022/06/24 01:26:57;;;;;;;0.30;0.30;;;18.20;99.90;;;;;;5053830;28;20175;-73
2022/06/24 01:29:24;;;;;;;0.40;0.40;;;18.10;99.90;;;;;;5052742;28;20199;-74
2022/06/24 01:31:52;;;;;;;0.33;0.33;;;18.10;99.90;;;;;;5053493;28;20199;-73
2022/06/24 01:34:20;;;;;;;0.30;0.30;;;18.10;99.90;;;;;;5052971;28;20613;-73
2022/06/24 01:36:46;;;;;;;0.40;0.40;;;18.00;99.90;;;;;;5053182;28;20278;-73
2022/06/24 01:39:12;;;;;;;0.40;0.40;;;18.00;99.90;;;;;;5052452;28;20257;-73
2022/06/24 01:41:38;;;;;;;0.40;0.40;;;18.00;99.90;;;;;;5052741;28;20737;-74
2022/06/24 01:44:04;;;;;;;0.30;0.30;;;17.90;99.90;;;;;;5053025;28;20233;-73
2022/06/24 01:46:30;;;;;;;0.47;0.47;;;17.90;99.90;;;;;;5052757;28;20203;-73
2022/06/24 01:48:55;;;;;;;0.33;0.33;;;17.90;99.90;;;;;;5052446;28;20206;-72
2022/06/24 01:51:23;;;;;;;0.30;0.30;;;17.80;99.90;;;;;;5052489;28;20182;-73
2022/06/24 01:53:49;;;;;;;0.37;0.37;;;17.80;99.90;;;;;;5052532;28;20593;-72
2022/06/24 01:56:15;;;;;;;0.33;0.33;;;17.80;99.90;;;;;;5052577;28;20720;-72
2022/06/24 01:58:40;;;;;;;0.40;0.40;;;17.80;99.90;;;;;;5052496;28;20175;-72
2022/06/24 02:01:06;;;;;;;0.30;0.30;;;17.90;99.90;;;;;;5052185;28;20183;-74
2022/06/24 02:03:34;;;;;;;0.43;0.43;;;17.80;99.90;;;;;;5052412;28;20174;-72
2022/06/24 02:06:03;;;;;;;0.30;0.30;;;17.80;99.90;;;;;;5052659;28;20265;-72
2022/06/24 02:08:29;;;;;;;0.30;0.30;;;17.90;99.90;;;;;;5052117;28;20180;-72
2022/06/24 02:13:39;;;;;;;0.40;0.40;;;17.80;99.90;;;;;;5052154;28;20297;-72
2022/06/24 02:16:05;;;;;;;0.30;0.30;;;17.90;99.90;;;;;;5052223;28;20698;-72
2022/06/24 02:18:31;;;;;;;0.40;0.40;;;17.80;99.90;;;;;;5052164;28;20660;-73
2022/06/24 02:20:58;;;;;;;0.30;0.30;;;17.80;99.90;;;;;;5051762;28;20262;-73
2022/06/24 02:23:24;;;;;;;0.30;0.30;;;17.80;99.90;;;;;;5052163;28;20194;-73
2022/06/24 02:25:51;;;;;;;0.30;0.30;;;17.80;99.90;;;;;;5051838;28;20597;-72
2022/06/24 02:28:17;;;;;;;0.33;0.33;;;17.70;99.90;;;;;;5051419;28;20702;-73
2022/06/24 02:30:44;;;;;;;0.30;0.30;;;17.70;99.90;;;;;;5051327;28;20206;-74
2022/06/24 02:33:10;;;;;;;0.30;0.30;;;17.70;99.90;;;;;;5051938;28;20253;-74
2022/06/24 02:35:37;;;;;;;0.30;0.30;;;17.70;99.90;;;;;;5051532;28;20217;-73
2022/06/24 02:38:03;;;;;;;0.33;0.33;;;17.70;99.90;;;;;;5052048;28;20183;-74
2022/06/24 02:43:27;;;;;;;0.40;0.40;;;17.70;99.90;;;;;;5051906;28;20205;-73
2022/06/24 02:45:57;;;;;;;0.30;0.30;;;17.80;99.90;;;;;;5051729;28;20510;-73
2022/06/24 02:48:23;;;;;;;0.30;0.30;;;17.80;99.90;;;;;;5051808;28;20723;-74
2022/06/24 02:50:50;;;;;;;0.30;0.30;;;17.80;99.90;;;;;;5051175;28;20390;-74
2022/06/24 02:53:17;;;;;;;0.30;0.30;;;17.70;99.90;;;;;;5051796;28;20187;-74
2022/06/24 02:55:44;;;;;;;0.30;0.30;;;17.60;99.90;;;;;;5051653;28;20249;-73
2022/06/24 02:58:11;;;;;;;0.40;0.40;;;17.60;99.90;;;;;;5051948;28;20210;-74
2022/06/24 03:00:39;;;;;;;0.30;0.30;;;17.60;99.90;;;;;;5051161;28;20185;-73
2022/06/24 03:03:05;;;;;;;0.40;0.40;;;17.60;99.90;;;;;;5051748;28;20290;-73
2022/06/24 03:05:30;;;;;;;0.30;0.30;;;17.50;99.90;;;;;;5051924;28;20601;-73
2022/06/24 03:07:56;;;;;;;0.30;0.30;;;17.50;99.90;;;;;;5051473;28;20182;-73
2022/06/24 03:10:22;;;;;;;0.40;0.40;;;17.50;99.90;;;;;;5051366;28;20274;-74
2022/06/24 03:12:47;;;;;;;0.40;0.40;;;17.40;99.90;;;;;;5051393;28;20221;-73
2022/06/24 03:15:13;;;;;;;0.40;0.40;;;17.40;99.90;;;;;;5051360;28;20206;-73
2022/06/24 03:17:39;;;;;;;0.30;0.30;;;17.30;99.90;;;;;;5051311;28;20628;-73
2022/06/24 03:20:06;;;;;;;0.30;0.30;;;17.30;99.90;;;;;;5050777;28;20175;-72
2022/06/24 03:22:32;;;;;;;0.40;0.40;;;17.30;99.90;;;;;;5051321;28;20584;-73
2022/06/24 03:24:58;;;;;;;0.30;0.30;;;17.30;99.90;;;;;;5051255;28;20182;-73
2022/06/24 03:27:23;;;;;;;0.30;0.30;;;17.30;99.90;;;;;;5051321;28;20182;-74
2022/06/24 03:29:49;;;;;;;0.30;0.30;;;17.30;99.90;;;;;;5050776;28;20515;-73
2022/06/24 03:32:14;;;;;;;0.30;0.30;;;17.30;99.90;;;;;;5051370;28;20191;-73
2022/06/24 03:34:40;;;;;;;0.30;0.30;;;17.30;99.90;;;;;;5051408;28;20206;-73
2022/06/24 03:37:06;;;;;;;0.30;0.30;;;17.30;99.90;;;;;;5051156;28;20273;-73
2022/06/24 03:39:31;;;;;;;0.33;0.33;;;17.30;99.90;;;;;;5051626;28;20191;-73
2022/06/24 03:41:57;;;;;;;0.40;0.40;;;17.20;99.90;;;;;;5055349;28;20190;-73
2022/06/24 03:44:23;;;;;;;0.30;0.30;;;17.20;99.90;;;;;;5055361;28;20265;-73
2022/06/24 03:46:48;;;;;;;0.30;0.30;;;17.20;99.90;;;;;;5055324;28;20185;-73
2022/06/24 03:49:15;;;;;;;0.30;0.30;;;17.20;99.90;;;;;;5054766;28;20179;-73
2022/06/24 03:51:41;;;;;;;0.40;0.40;;;17.20;99.90;;;;;;5054965;28;20297;-73
2022/06/24 03:54:06;;;;;;;0.40;0.40;;;17.20;99.90;;;;;;5054798;28;20702;-73
2022/06/24 03:56:32;;;;;;;0.30;0.30;;;17.20;99.90;;;;;;5054189;28;20198;-73
2022/06/24 03:58:57;;;;;;;0.40;0.40;;;17.20;99.90;;;;;;5054063;28;20186;-74
2022/06/24 04:01:23;;;;;;;0.40;0.40;;;17.20;99.90;;;;;;5054944;28;20179;-74
2022/06/24 04:03:48;;;;;;;0.30;0.30;;;17.10;99.90;;;;;;5055080;28;20187;-74
2022/06/24 04:06:14;;;;;;;0.40;0.40;;;17.10;99.90;;;;;;5055129;28;20250;-73
2022/06/24 04:08:39;;;;;;;0.30;0.30;;;17.10;99.90;;;;;;5054867;28;20545;-73
2022/06/24 04:11:17;;;;;;;0.40;0.40;;;17.10;99.90;;;;;;5054386;28;20175;-73
2022/06/24 04:13:43;;;;;;;0.37;0.37;;;17.10;99.90;;;;;;5054749;28;20179;-73
2022/06/24 04:16:09;;;;;;;0.30;0.30;;;17.10;99.90;;;;;;5054850;28;20219;-73
2022/06/24 04:18:35;;;;;;;0.33;0.33;;;17.20;99.90;;;;;;5055053;28;20182;-73
2022/06/24 04:21:00;;;;;;;0.40;0.40;;;17.20;99.90;;;;;;5054287;28;20199;-73
2022/06/24 04:23:26;;;;;;;0.40;0.40;;;17.30;99.90;;;;;;5054672;28;20660;-73
2022/06/24 04:25:52;;;;;;;0.30;0.30;;;17.30;99.90;;;;;;5054610;28;20667;-73
2022/06/24 04:28:18;;;;;;;0.33;0.33;;;17.40;99.90;;;;;;5054456;28;20187;-73
2022/06/24 04:30:44;;;;;;;0.37;0.37;;;17.50;99.90;;;;;;5054139;28;20190;-73
2022/06/24 04:33:10;;;;;;;0.40;0.40;;;17.50;99.90;;;;;;5054094;28;20663;-73
2022/06/24 04:38:11;;;;;;;0.40;0.40;;;17.80;99.90;;;;;;5075525;28;20202;-79
2022/06/24 04:40:36;;;;;;;0.37;0.37;;;17.90;99.90;;;;;;5076054;28;20181;-79
2022/06/24 04:43:02;;;;;;;0.30;0.30;;;18.00;99.90;;;;;;5076371;28;20195;-79
2022/06/24 04:45:28;;;;;;;0.30;0.30;;;18.10;99.90;;;;;;5077689;28;20263;-80
2022/06/24 04:47:53;;;;;;;0.30;0.30;;;18.20;99.90;;;;;;5079467;28;20174;-80
2022/06/24 04:50:19;;;;;;;0.40;0.40;;;18.20;99.90;;;;;;5081806;28;20171;-81
2022/06/24 04:52:44;;;;;;;0.40;0.40;;;18.40;99.90;;;;;;5074627;28;20222;-78
2022/06/24 04:55:10;;;;;;;0.37;0.37;;;18.40;99.90;;;;;;5074990;28;20202;-79
2022/06/24 04:57:35;;;;;;;0.30;0.30;;;18.50;99.90;;;;;;5074565;28;20166;-82
2022/06/24 05:00:01;;;;;;;0.30;0.30;;;18.70;99.90;;;;;;5073706;28;20205;-78
2022/06/24 05:02:27;;;;;;;0.40;0.40;;;18.90;99.90;;;;;;5074119;28;20199;-78
2022/06/24 05:04:52;;;;;;;0.40;0.40;;;19.10;99.90;;;;;;5074336;28;20564;-78
2022/06/24 05:07:18;;;;;;;0.40;0.40;;;19.30;99.90;;;;;;5074126;28;20624;-78
2022/06/24 05:09:45;;;;;;;0.30;0.30;;;19.40;99.90;;;;;;5073636;28;20170;-77
2022/06/24 05:12:10;;;;;;;0.30;0.30;;;19.50;99.90;;;;;;5073876;28;20240;-82
2022/06/24 05:14:36;;;;;;;0.30;0.30;;;19.70;99.90;;;;;;5073831;28;20214;-79
2022/06/24 05:17:02;;;;;;;0.30;0.30;;;19.60;99.90;;;;;;5074507;28;20170;-79
2022/06/24 05:19:27;;;;;;;0.33;0.33;;;19.40;99.90;;;;;;5073568;28;20232;-79
2022/06/24 05:21:53;;;;;;;0.30;0.30;;;19.30;99.90;;;;;;5074156;28;20221;-78
2022/06/24 05:24:19;;;;;;;0.30;0.30;;;19.40;99.90;;;;;;5073504;28;20170;-78
2022/06/24 05:26:46;;;;;;;0.30;0.30;;;19.50;99.90;;;;;;5075616;28;20182;-79
2022/06/24 05:29:11;;;;;;;0.37;0.37;;;19.60;99.90;;;;;;5078317;28;20182;-78
2022/06/24 05:31:37;;;;;;;0.30;0.30;;;19.70;99.90;;;;;;5083118;28;20240;-78
2022/06/24 05:34:03;;;;;;;0.40;0.40;;;19.70;99.90;;;;;;5093915;28;20215;-77
2022/06/24 05:36:28;;;;;;;0.40;0.40;;;19.70;99.90;;;;;;5093535;28;20262;-77
2022/06/24 05:38:54;;;;;;;0.30;0.30;;;19.70;99.90;;;;;;5085662;28;20586;-77
2022/06/24 05:41:19;;;;;;;0.30;0.30;;;19.70;99.90;;;;;;5071779;28;20680;-80
2022/06/24 05:43:46;;;;;;;0.40;0.40;;;19.80;99.90;;;;;;5083570;28;20296;-79
2022/06/24 05:46:12;;;;;;;0.40;0.40;;;19.90;99.90;;;;;;5093309;28;20170;-80
2022/06/24 05:48:38;;;;;;;0.30;0.30;;;20.00;99.90;;;;;;5077884;28;20203;-76
2022/06/24 05:51:12;;;;;;;0.30;0.30;;;19.80;99.90;;;;;;5079549;28;20206;-76
2022/06/24 05:56:24;;;;;;;0.30;0.30;;;19.70;99.90;;;;;;5089237;28;20678;-77
2022/06/24 05:58:50;;;;;;;0.30;0.30;;;19.70;99.90;;;;;;5092957;28;20174;-76
2022/06/24 06:01:16;;;;;;;0.30;0.30;;;19.80;99.90;;;;;;5093114;28;20642;-77
2022/06/24 06:03:41;;;;;;;0.40;0.40;;;19.80;99.90;;;;;;5080830;28;20175;-77
2022/06/24 06:06:08;;;;;;;0.30;0.30;;;19.60;99.90;;;;;;5077222;28;20260;-76
2022/06/24 06:08:35;;;;;;;0.30;0.30;;;19.70;99.90;;;;;;5083311;28;20184;-77
2022/06/24 06:11:00;;;;;;;0.30;0.30;;;19.70;99.90;;;;;;5085182;28;20180;-77
2022/06/24 06:13:26;;;;;;;0.30;0.30;;;19.70;99.90;;;;;;5078230;28;20300;-77
2022/06/24 06:15:51;;;;;;;0.40;0.40;;;19.70;99.90;;;;;;5080045;28;20648;-77
2022/06/24 06:18:17;;;;;;;0.40;0.40;;;19.70;99.90;;;;;;5085808;28;20219;-77
2022/06/24 06:20:44;;;;;;;0.40;0.40;;;19.90;99.90;;;;;;5093591;28;20228;-77
2022/06/24 06:23:09;;;;;;;0.30;0.30;;;20.00;99.90;;;;;;5091399;28;20733;-75
2022/06/24 06:25:35;;;;;;;0.30;0.30;;;20.10;99.90;;;;;;5081618;28;20658;-76
2022/06/24 06:28:02;;;;;;;0.30;0.30;;;20.30;99.90;;;;;;5092686;28;20166;-76
2022/06/24 06:30:29;;;;;;;0.30;0.30;;;20.30;99.90;;;;;;5077457;28;20198;-77
2022/06/24 06:32:55;;;;;;;0.37;0.37;;;20.30;99.90;;;;;;5084130;28;20260;-77
2022/06/24 06:35:20;;;;;;;0.30;0.30;;;20.50;99.90;;;;;;5079556;28;20248;-76
2022/06/24 06:37:46;;;;;;;0.37;0.37;;;20.60;99.90;;;;;;5059771;28;20282;-77
2022/06/24 06:40:11;;;;;;;0.33;0.33;;;20.70;52.80;;;;;;5077227;28;20174;-76
2022/06/24 06:42:37;;;;;;;0.30;0.30;;;20.70;33.00;;;;;;5079296;28;20607;-77
2022/06/24 06:45:03;;;;;;;0.30;0.30;;;20.80;99.90;;;;;;5080543;28;20182;-77
2022/06/24 06:47:28;;;;;;;0.27;0.27;;;21.00;1.00;;;;;;5088847;28;20219;-76
2022/06/24 06:49:54;;;;;;;0.30;0.30;;;21.10;1.00;;;;;;5091516;28;20197;-76
2022/06/24 06:52:20;;;;;;;0.30;0.30;;;21.20;1.00;;;;;;5092338;28;20564;-77
2022/06/24 06:54:46;;;;;;;0.40;0.40;;;21.40;1.00;;;;;;5092183;28;20294;-77
2022/06/24 06:57:11;;;;;;;0.30;0.30;;;21.50;1.00;;;;;;5093429;28;20537;-76
2022/06/24 06:59:37;;;;;;;0.30;0.30;;;21.50;1.00;;;;;;5096263;28;20654;-77
2022/06/24 07:02:03;;;;;;;0.37;0.37;;;21.50;1.00;;;;;;5093971;28;20194;-77
2022/06/24 07:04:28;;;;;;;0.30;0.30;;;21.60;1.00;;;;;;5082229;28;20179;-76
2022/06/24 07:06:54;;;;;;;0.30;0.30;;;21.60;1.00;;;;;;5070712;28;20211;-76
2022/06/24 07:09:19;;;;;;;0.40;0.40;;;21.60;1.00;;;;;;5065830;28;20178;-76
2022/06/24 07:11:45;;;;;;;0.30;0.30;;;21.80;1.00;;;;;;5076581;28;20514;-76
2022/06/24 07:14:10;;;;;;;0.30;0.30;;;21.80;99.90;;;;;;5068351;28;20822;-76
2022/06/24 07:16:36;;;;;;;0.30;0.30;;;21.80;99.90;;;;;;5071206;28;20276;-76
2022/06/24 07:19:02;;;;;;;0.30;0.30;;;21.90;99.90;;;;;;5071230;28;20178;-77
2022/06/24 07:21:28;;;;;;;0.30;0.30;;;22.00;99.90;;;;;;5068568;28;20217;-76
2022/06/24 07:23:53;;;;;;;0.37;0.37;;;22.20;99.90;;;;;;5072739;28;20231;-76
2022/06/24 07:26:19;;;;;;;0.30;0.30;;;22.50;19.00;;;;;;5070312;28;20767;-77
2022/06/24 07:28:45;;;;;;;0.30;0.30;;;22.70;1.00;;;;;;5071225;28;20178;-76
2022/06/24 07:31:18;;;;;;;0.40;0.40;;;22.80;99.90;;;;;;5070854;28;20631;-76
2022/06/24 07:33:43;;;;;;;0.30;0.30;;;22.90;1.00;;;;;;5071270;28;20261;-75
2022/06/24 07:36:09;;;;;;;0.40;0.40;;;23.10;99.90;;;;;;5076269;28;20358;-76
2022/06/24 07:38:35;;;;;;;0.30;0.30;;;23.30;99.90;;;;;;5073544;28;20183;-76
2022/06/24 07:41:00;;;;;;;0.30;0.30;;;23.50;99.90;;;;;;5076859;28;20233;-76
2022/06/24 07:43:26;;;;;;;0.37;0.37;;;24.00;99.90;;;;;;5068933;28;20210;-76
2022/06/24 07:45:52;;;;;;;0.30;0.30;;;24.30;99.90;;;;;;5073847;28;20186;-77
2022/06/24 07:48:17;;;;;;;0.30;0.30;;;24.60;99.90;;;;;;5075848;28;20166;-75
2022/06/24 07:50:43;;;;;;;0.30;0.30;;;25.10;99.90;;;;;;5068268;28;20186;-77
2022/06/24 07:53:09;;;;;;;0.30;0.30;;;25.40;1.00;;;;;;5070717;28;20222;-75
2022/06/24 07:58:18;;;;;;;0.30;0.30;;;25.20;1.00;;;;;;5065874;28;20240;-75
2022/06/24 08:00:44;;;;;;;0.30;0.30;;;25.50;1.00;;;;;;5071863;28;20190;-75
2022/06/24 08:03:10;;;;;;;0.40;0.40;;;25.80;1.00;;;;;;5075010;28;20197;-76
2022/06/24 08:05:35;;;;;;;0.40;0.40;;;26.00;1.00;;;;;;5072331;28;20194;-77
2022/06/24 08:08:01;;;;;;;0.30;0.30;;;26.00;1.00;;;;;;5069800;28;20174;-76
2022/06/24 08:10:26;;;;;;;0.30;0.30;;;26.00;1.00;;;;;;5070200;28;20213;-77
2022/06/24 08:12:52;;;;;;;0.30;0.30;;;26.00;1.00;;;;;;5070618;28;20194;-76
2022/06/24 08:15:18;;;;;;;0.40;0.40;;;25.80;1.00;;;;;;5069729;28;20663;-77
2022/06/24 08:17:43;;;;;;;0.50;0.50;;;25.70;1.00;;;;;;5070522;28;20676;-76
2022/06/24 08:20:09;;;;;;;0.37;0.37;;;25.60;1.00;;;;;;5068721;28;20277;-76
2022/06/24 08:22:35;;;;;;;0.30;0.30;;;25.40;1.00;;;;;;5072191;28;20360;-75
2022/06/24 08:25:01;;;;;;;0.30;0.30;;;25.10;68.00;;;;;;5080246;28;20257;-77
2022/06/24 08:27:27;;;;;;;0.30;0.30;;;25.00;4.00;;;;;;5070871;28;20679;-76
2022/06/24 08:29:52;;;;;;;0.23;0.23;;;24.70;1.00;;;;;;5076052;28;20234;-76
2022/06/24 08:32:18;;;;;;;0.30;0.30;;;24.40;29.60;;;;;;5075455;28;20667;-75
2022/06/24 08:34:44;;;;;;;0.30;0.30;;;24.40;11.20;;;;;;5073691;28;20256;-74
2022/06/24 08:37:09;;;;;;;0.30;0.30;;;24.60;46.80;;;;;;5072428;28;20186;-75
2022/06/24 08:39:35;;;;;;;0.40;0.40;;;25.20;1.00;;;;;;5073302;28;20182;-75
2022/06/24 08:42:03;;;;;;;0.40;0.40;;;25.70;1.00;;;;;;5073743;28;20622;-76
2022/06/24 08:44:28;;;;;;;0.40;0.40;;;25.90;1.00;;;;;;5076035;28;20182;-75
2022/06/24 08:46:54;;;;;;;0.30;0.30;;;26.10;1.00;;;;;;5084517;28;20589;-76
2022/06/24 08:49:20;;;;;;;0.30;0.30;;;26.80;1.00;;;;;;5084704;28;20260;-76
2022/06/24 08:51:47;;;;;;;0.43;0.43;;;27.00;1.00;;;;;;5093594;28;20281;-75
2022/06/24 08:54:16;;;;;;;0.40;0.40;;;27.20;1.00;;;;;;5094094;28;20202;-76
2022/06/24 08:56:42;;;;;;;0.40;0.40;;;27.30;1.00;;;;;;5094008;28;20674;-76
2022/06/24 08:59:07;;;;;;;0.53;0.53;;;27.80;1.00;;;;;;5093343;28;20174;-75
2022/06/24 09:01:39;;;;;;;0.60;0.60;;;28.20;1.00;;;;;;5093845;28;20201;-75
2022/06/24 09:04:04;;;;;;;0.50;0.50;;;28.30;1.00;;;;;;5084921;28;20182;-76
2022/06/24 09:06:40;;;;;;;0.30;0.30;;;28.30;1.00;;;;;;5074423;28;20265;-76
2022/06/24 09:09:06;;;;;;;0.40;0.40;;;28.10;1.00;;;;;;5073680;28;20189;-76
2022/06/24 09:11:40;;;;;;;0.50;0.50;;;27.90;1.00;;;;;;5073745;28;20555;-76
2022/06/24 09:14:06;;;;;;;0.50;0.50;;;28.10;1.00;;;;;;5073744;28;20174;-77
2022/06/24 09:16:36;;;;;;;0.40;0.40;;;28.40;1.00;;;;;;5074305;28;20255;-77
2022/06/24 09:19:03;;;;;;;0.30;0.30;;;28.20;1.00;;;;;;5072850;28;20175;-76
2022/06/24 09:21:30;;;;;;;0.50;0.50;;;28.30;1.00;;;;;;5073781;28;20289;-76
2022/06/24 09:23:58;;;;;;;0.53;0.53;;;28.10;1.00;;;;;;5073187;28;20175;-76
2022/06/24 09:26:36;;;;;;;0.37;0.37;;;28.00;1.00;;;;;;5073892;28;20262;-76
2022/06/24 09:29:07;;;;;;;0.60;0.60;;;28.20;1.00;;;;;;5070170;28;20202;-77
2022/06/24 09:31:34;;;;;;;0.50;0.50;;;28.70;1.00;;;;;;5074161;28;20198;-76
2022/06/24 09:34:16;;;;;;;0.40;0.40;;;28.70;1.00;;;;;;5086742;28;20182;-77
2022/06/24 09:36:45;;;;;;;0.50;0.50;;;29.10;1.00;;;;;;5099196;28;20194;-80
2022/06/24 09:39:12;;;;;;;0.53;0.53;;;28.70;1.00;;;;;;5096249;28;20654;-77
2022/06/24 09:41:45;;;;;;;0.50;0.50;;;28.30;1.00;;;;;;5094054;28;20199;-76
2022/06/24 09:44:11;;;;;;;0.30;0.30;;;29.00;1.00;;;;;;5093475;28;20603;-74
2022/06/24 09:46:37;;;;;;;0.53;0.53;;;29.70;1.00;;;;;;5093117;28;20181;-77
2022/06/24 09:49:05;;;;;;;0.50;0.50;;;30.20;1.00;;;;;;5093284;28;20186;-77
2022/06/24 09:51:31;;;;;;;0.60;0.60;;;29.90;1.00;;;;;;5093440;28;20248;-77
2022/06/24 09:53:57;;;;;;;0.60;0.60;;;28.80;1.00;;;;;;5097092;28;20181;-77
2022/06/24 09:56:23;;;;;;;0.40;0.40;;;27.60;1.00;;;;;;5093840;28;20252;-77
2022/06/24 10:01:41;;;;;;;0.50;0.50;;;28.20;1.00;;;;;;5062953;28;20198;-78
2022/06/24 10:04:12;;;;;;;0.60;0.60;;;28.70;1.00;;;;;;5078237;28;20232;-76
2022/06/24 10:06:40;;;;;;;0.50;0.50;;;28.70;1.00;;;;;;5080715;28;20206;-75
2022/06/24 10:09:07;;;;;;;0.60;0.60;;;28.70;1.00;;;;;;5072003;28;20230;-75
2022/06/24 10:11:34;;;;;;;0.43;0.43;;;28.60;1.00;;;;;;5072395;28;20214;-77
2022/06/24 10:14:01;;;;;;;0.50;0.50;;;28.80;1.00;;;;;;5072149;28;20194;-75
2022/06/24 10:16:27;;;;;;;0.50;0.50;;;29.00;1.00;;;;;;5069770;28;20563;-75
2022/06/24 10:18:54;;;;;;;0.50;0.50;;;29.40;1.00;;;;;;5077554;28;20226;-75
2022/06/24 10:21:20;;;;;;;0.50;0.50;;;29.30;1.00;;;;;;5083827;28;20177;-76
2022/06/24 10:23:51;;;;;;;0.43;0.43;;;29.30;1.00;;;;;;5092328;28;20174;-78
2022/06/24 10:26:34;;;;;;;0.67;0.67;;;29.20;1.00;;;;;;5090558;28;20189;-77
2022/06/24 10:29:05;;;;;;;0.60;0.60;;;29.10;1.00;;;;;;5072477;28;20198;-75
2022/06/24 10:31:49;;;;;;;0.50;0.50;;;28.80;1.00;;;;;;5071852;28;20190;-74
2022/06/24 10:34:27;;;;;;;0.57;0.57;;;28.20;1.00;;;;;;5071731;28;20185;-75
2022/06/24 10:37:10;;;;;;;0.50;0.50;;;27.80;1.00;;;;;;5105882;22;20513;-81
2022/06/24 10:39:54;;;;;;;0.50;0.50;;;27.70;1.00;;;;;;5054366;28;20224;-81
2022/06/24 10:42:21;;;;;;;0.40;0.40;;;27.80;1.00;;;;;;5054390;28;20198;-81
2022/06/24 10:45:02;;;;;;;0.30;0.30;;;28.10;1.00;;;;;;5054854;28;20193;-81
2022/06/24 10:47:36;;;;;;;0.43;0.43;;;28.80;1.00;;;;;;5036715;28;20175;-81
2022/06/24 10:50:02;;;;;;;0.50;0.50;;;29.20;1.00;;;;;;5042235;28;20206;-81
2022/06/24 10:52:51;;;;;;;0.50;0.50;;;28.70;1.00;;;;;;5054181;28;20203;-79
2022/06/24 10:55:16;;;;;;;0.40;0.40;;;29.20;1.00;;;;;;5053452;28;20215;-80
2022/06/24 10:57:46;;;;;;;0.40;0.40;;;28.70;1.00;;;;;;5052071;28;20229;-78
2022/06/24 11:00:14;;;;;;;0.40;0.40;;;28.30;1.00;;;;;;5052548;28;20217;-80
2022/06/24 11:02:40;;;;;;;0.40;0.40;;;28.10;1.00;;;;;;5053627;28;20191;-79
2022/06/24 11:05:11;;;;;;;0.40;0.40;;;28.10;1.00;;;;;;5052806;28;20198;-82
2022/06/24 11:07:44;;;;;;;0.50;0.50;;;28.20;1.00;;;;;;5047627;28;20190;-82
2022/06/24 11:10:29;;;;;;;0.40;0.40;;;28.30;1.00;;;;;;5051289;28;20183;-80
2022/06/24 11:12:59;;;;;;;0.43;0.43;;;28.50;1.00;;;;;;5062878;28;20198;-82
2022/06/24 11:15:47;;;;;;;0.50;0.50;;;28.50;1.00;;;;;;5052769;28;20230;-80
2022/06/24 11:18:15;;;;;;;0.60;0.60;;;28.70;1.00;;;;;;5047471;28;20202;-80
2022/06/24 11:20:47;;;;;;;0.60;0.60;;;28.80;1.00;;;;;;5058310;28;20690;-81
2022/06/24 11:23:14;;;;;;;0.60;0.60;;;28.60;1.00;;;;;;5052131;28;20234;-80
2022/06/24 11:25:46;;;;;;;0.40;0.40;;;28.00;1.00;;;;;;5054517;28;20239;-80
2022/06/24 11:28:22;;;;;;;0.43;0.43;;;27.80;1.00;;;;;;5053089;28;20171;-80
2022/06/24 11:30:49;;;;;;;0.40;0.40;;;27.70;1.00;;;;;;5060255;28;20239;-82
2022/06/24 11:33:15;;;;;;;0.40;0.40;;;27.80;1.00;;;;;;5058779;28;20194;-81
2022/06/24 11:35:40;;;;;;;0.50;0.50;;;27.80;1.00;;;;;;5057360;28;20221;-81
2022/06/24 11:38:07;;;;;;;0.50;0.50;;;27.70;1.00;;;;;;5052998;28;20551;-81
2022/06/24 11:40:33;;;;;;;0.50;0.50;;;27.80;1.00;;;;;;5053700;28;20186;-81
2022/06/24 11:43:09;;;;;;;0.50;0.50;;;27.80;1.00;;;;;;5060100;28;20692;-81
2022/06/24 11:45:38;;;;;;;0.50;0.50;;;28.00;1.00;;;;;;5071449;28;20191;-80
2022/06/24 11:48:06;;;;;;;0.50;0.50;;;28.20;1.00;;;;;;5070480;28;20209;-80
2022/06/24 11:50:33;;;;;;;0.50;0.50;;;28.30;1.00;;;;;;5065096;28;20189;-81
2022/06/24 11:52:59;;;;;;;0.63;0.63;;;28.70;1.00;;;;;;5058050;28;20703;-80
2022/06/24 11:55:29;;;;;;;0.50;0.50;;;29.20;1.00;;;;;;5062170;28;20206;-81
2022/06/24 11:57:59;;;;;;;0.60;0.60;;;29.40;1.00;;;;;;5056534;28;20172;-81
2022/06/24 12:00:27;;;;;;;0.60;0.60;;;29.70;1.00;;;;;;5054546;28;20170;-82
2022/06/24 12:02:55;;;;;;;0.60;0.60;;;29.70;1.00;;;;;;5056020;28;20252;-82
2022/06/24 12:05:22;;;;;;;0.40;0.40;;;29.50;1.00;;;;;;5060663;28;20644;-82
2022/06/24 12:07:49;;;;;;;0.50;0.50;;;29.60;1.00;;;;;;5056214;28;20171;-79
2022/06/24 12:10:15;;;;;;;0.53;0.53;;;29.50;1.00;;;;;;5056424;28;20282;-82
2022/06/24 12:13:07;;;;;;;0.50;0.50;;;29.30;1.00;;;;;;5063713;28;20231;-82
2022/06/24 12:15:36;;;;;;;0.50;0.50;;;29.00;1.00;;;;;;5040120;28;20241;-82
2022/06/24 12:18:11;;;;;;;0.60;0.60;;;28.50;1.00;;;;;;5041433;28;20201;-83
2022/06/24 12:20:37;;;;;;;0.60;0.60;;;28.20;1.00;;;;;;5043333;28;20198;-81
2022/06/24 12:23:17;;;;;;;0.50;0.50;;;28.00;1.00;;;;;;5063055;28;20187;-83
2022/06/24 12:25:50;;;;;;;0.50;0.50;;;28.10;1.00;;;;;;5056992;28;20644;-83
2022/06/24 12:28:25;;;;;;;0.50;0.50;;;28.20;1.00;;;;;;5056184;28;20178;-81
2022/06/24 12:31:06;;;;;;;0.50;0.50;;;28.00;1.00;;;;;;5050947;28;20266;-81
2022/06/24 12:33:36;;;;;;;0.50;0.50;;;27.70;1.00;;;;;;5057602;28;20175;-79
2022/06/24 12:36:03;;;;;;;0.50;0.50;;;27.40;1.00;;;;;;5055297;28;20241;-80
2022/06/24 12:38:28;;;;;;;0.40;0.40;;;27.30;1.00;;;;;;5039348;28;20191;-79
2022/06/24 12:41:05;;;;;;;0.40;0.40;;;27.50;1.00;;;;;;5041571;28;20190;-81
2022/06/24 12:43:31;;;;;;;0.30;0.30;;;27.50;1.00;;;;;;5064636;28;20182;-81
2022/06/24 12:45:57;;;;;;;0.40;0.40;;;27.40;1.00;;;;;;5063869;28;20559;-80
2022/06/24 12:51:06;;;;;;;0.30;0.30;;;26.60;1.00;;;;;;5039855;28;20281;-79
2022/06/24 12:53:32;;;;;;;0.40;0.40;;;26.30;1.00;;;;;;5041800;28;20176;-81
2022/06/24 12:56:01;;;;;;;0.37;0.37;;;25.90;1.00;;;;;;5044163;28;20266;-80
2022/06/24 12:58:27;;;;;;;0.23;0.23;;;25.60;1.00;;;;;;5054491;28;20183;-80
2022/06/24 13:00:53;;;;;;;0.30;0.30;;;25.40;1.00;;;;;;5057200;28;20247;-80
2022/06/24 13:03:20;;;;;;;0.40;0.40;;;25.20;1.00;;;;;;5059884;28;20294;-80
2022/06/24 13:05:47;;;;;;;0.37;0.37;;;25.00;1.00;;;;;;5057113;28;20182;-80
2022/06/24 13:08:13;;;;;;;0.30;0.30;;;24.80;1.00;;;;;;5059231;28;20179;-79
2022/06/24 13:10:38;;;;;;;0.30;0.30;;;24.60;1.00;;;;;;5057109;28;20179;-82
2022/06/24 13:13:05;;;;;;;0.30;0.30;;;24.50;18.10;;;;;;5064483;28;20203;-81